createdAt,value
2018-06-12T00:02:07.225Z,17.60
2018-06-12T00:05:10.164Z,14.00
2018-06-12T00:08:13.142Z,13.43
2018-06-12T00:11:16.117Z,17.33
2018-06-12T00:14:19.061Z,14.33
2018-06-12T00:17:22.016Z,16.33
2018-06-12T00:20:24.945Z,15.00
2018-06-12T00:23:27.909Z,16.40
2018-06-12T00:26:30.903Z,15.80
2018-06-12T00:29:33.867Z,12.43
2018-06-12T00:32:36.830Z,17.13
2018-06-12T00:35:39.774Z,15.87
2018-06-12T00:38:42.739Z,15.67
2018-06-12T00:41:45.725Z,14.90
2018-06-12T00:44:48.708Z,13.37
2018-06-12T00:47:51.764Z,13.73
2018-06-12T00:50:54.719Z,22.93
2018-06-12T00:53:57.684Z,15.37
2018-06-12T00:57:08.779Z,15.63
2018-06-12T01:00:11.731Z,15.10
2018-06-12T01:03:14.733Z,22.40
2018-06-12T01:06:17.706Z,14.33
2018-06-12T01:09:20.626Z,12.43
2018-06-12T01:12:23.509Z,14.73
2018-06-12T01:15:26.495Z,15.70
2018-06-12T01:18:29.381Z,12.87
2018-06-12T01:21:32.299Z,15.37
2018-06-12T01:24:35.219Z,14.37
2018-06-12T01:27:38.147Z,21.43
2018-06-12T01:30:41.065Z,17.73
2018-06-12T01:33:44.000Z,16.07
2018-06-12T01:36:46.878Z,20.93
2018-06-12T01:39:49.830Z,15.80
2018-06-12T01:42:52.742Z,13.30
2018-06-12T01:45:55.640Z,27.80
2018-06-12T01:48:58.583Z,19.83
2018-06-12T01:52:01.509Z,16.83
2018-06-12T01:55:04.403Z,19.03
2018-06-12T01:58:07.298Z,19.03
2018-06-12T02:01:10.156Z,19.50
2018-06-12T02:04:13.069Z,29.93
2018-06-12T02:07:15.939Z,33.23
2018-06-12T02:13:50.624Z,26.77
2018-06-12T02:16:53.524Z,25.43
2018-06-12T02:19:56.445Z,31.67
2018-06-12T02:22:59.364Z,22.30
2018-06-12T02:26:02.287Z,20.00
2018-06-12T02:29:05.290Z,25.40
2018-06-12T02:32:09.189Z,29.33
2018-06-12T02:35:12.105Z,25.20
2018-06-12T02:38:15.009Z,31.57
2018-06-12T02:41:17.901Z,26.60
2018-06-12T02:44:20.825Z,26.03
2018-06-12T02:47:23.730Z,19.43
2018-06-12T02:50:26.648Z,27.23
2018-06-12T02:53:29.588Z,25.93
2018-06-12T02:56:32.501Z,27.23
2018-06-12T02:59:35.623Z,22.90
2018-06-12T03:02:38.537Z,26.67
2018-06-12T03:05:41.428Z,26.93
2018-06-12T03:08:44.336Z,28.30
2018-06-12T03:11:47.250Z,32.30
2018-06-12T03:14:50.147Z,26.27
2018-06-12T03:17:53.072Z,28.13
2018-06-12T03:20:55.977Z,22.03
2018-06-12T03:23:58.955Z,29.73
2018-06-12T03:27:01.872Z,26.60
2018-06-12T03:30:04.841Z,32.67
2018-06-12T03:33:07.777Z,26.20
2018-06-12T03:36:10.732Z,21.77
2018-06-12T03:39:13.648Z,26.63
2018-06-12T03:42:16.583Z,31.20
2018-06-12T03:45:19.523Z,41.47
2018-06-12T03:48:22.458Z,39.17
2018-06-12T03:51:25.451Z,47.63
2018-06-12T03:54:28.568Z,44.43
2018-06-12T03:57:31.617Z,44.70
2018-06-12T04:00:35.789Z,46.47
2018-06-12T04:03:39.528Z,44.80
2018-06-12T04:06:42.469Z,47.00
2018-06-12T04:09:45.354Z,43.53
2018-06-12T04:12:48.246Z,35.40
2018-06-12T04:15:51.249Z,31.13
2018-06-12T04:18:54.163Z,32.10
2018-06-12T04:21:57.069Z,25.50
2018-06-12T04:24:59.997Z,33.80
2018-06-12T04:28:02.990Z,24.37
2018-06-12T04:31:05.906Z,26.73
2018-06-12T04:34:08.830Z,24.10
2018-06-12T04:37:11.756Z,25.90
2018-06-12T04:40:14.702Z,24.80
2018-06-12T04:43:17.677Z,26.97
2018-06-12T04:46:20.556Z,24.37
2018-06-12T04:49:23.493Z,23.67
2018-06-12T04:52:26.607Z,29.03
2018-06-12T04:55:29.498Z,24.47
2018-06-12T04:58:32.488Z,28.30
2018-06-12T05:01:35.445Z,18.43
2018-06-12T05:04:38.371Z,17.40
2018-06-12T05:07:41.303Z,22.53
2018-06-12T05:10:44.248Z,21.40
2018-06-12T05:13:47.171Z,25.43
2018-06-12T05:16:50.096Z,21.33
2018-06-12T05:19:53.039Z,21.87
2018-06-12T05:22:56.011Z,30.33
2018-06-12T05:25:58.923Z,25.33
2018-06-12T05:29:01.893Z,20.30
2018-06-12T05:32:04.881Z,18.73
2018-06-12T05:35:07.809Z,13.73
2018-06-12T05:38:10.704Z,15.20
2018-06-12T05:41:13.624Z,12.40
2018-06-12T05:44:16.528Z,21.43
2018-06-12T05:47:19.472Z,16.23
2018-06-12T05:50:22.362Z,10.93
2018-06-12T05:53:25.307Z,12.13
2018-06-12T05:56:28.220Z,17.73
2018-06-12T05:59:31.184Z,14.47
2018-06-12T06:02:34.112Z,17.40
2018-06-12T06:05:37.060Z,28.23
2018-06-12T06:08:39.977Z,14.23
2018-06-12T06:11:42.889Z,21.73
2018-06-12T06:14:45.852Z,14.10
2018-06-12T06:17:48.774Z,16.97
2018-06-12T06:20:51.699Z,16.57
2018-06-12T06:23:54.601Z,15.70
2018-06-12T06:26:57.586Z,13.73
2018-06-12T06:30:00.528Z,16.53
2018-06-12T06:33:03.500Z,22.53
2018-06-12T06:36:06.441Z,19.40
2018-06-12T06:39:09.368Z,17.10
2018-06-12T06:42:12.293Z,20.03
2018-06-12T06:45:15.246Z,21.00
2018-06-12T06:48:18.185Z,21.90
2018-06-12T06:51:21.095Z,26.77
2018-06-12T06:54:24.010Z,16.60
2018-06-12T06:57:26.894Z,29.97
2018-06-12T07:00:29.817Z,26.57
2018-06-12T07:03:32.776Z,18.30
2018-06-12T07:06:35.703Z,28.07
2018-06-12T07:09:38.586Z,28.60
2018-06-12T07:12:41.613Z,21.97
2018-06-12T07:15:44.623Z,23.60
2018-06-12T07:18:47.691Z,30.20
2018-06-12T07:21:50.640Z,28.23
2018-06-12T07:24:53.583Z,18.80
2018-06-12T07:27:56.572Z,20.70
2018-06-12T07:30:59.529Z,24.67
2018-06-12T07:34:02.465Z,20.33
2018-06-12T07:37:05.411Z,19.40
2018-06-12T07:40:08.289Z,16.03
2018-06-12T07:43:11.211Z,17.37
2018-06-12T07:46:14.158Z,27.80
2018-06-12T07:49:17.092Z,16.20
2018-06-12T07:52:20.008Z,12.27
2018-06-12T07:55:22.914Z,24.47
2018-06-12T07:58:25.839Z,20.87
2018-06-12T08:01:28.742Z,19.17
2018-06-12T08:04:31.669Z,10.40
2018-06-12T08:07:34.646Z,12.30
2018-06-12T08:10:37.542Z,15.43
2018-06-12T08:13:40.470Z,8.63
2018-06-12T08:16:43.390Z,14.70
2018-06-12T08:19:46.321Z,15.80
2018-06-12T08:22:49.229Z,16.53
2018-06-12T08:25:52.131Z,12.03
2018-06-12T08:28:55.038Z,18.47
2018-06-12T08:31:57.969Z,14.13
2018-06-12T08:35:00.956Z,19.17
2018-06-12T08:38:03.921Z,13.87
2018-06-12T08:41:06.809Z,18.50
2018-06-12T08:44:09.710Z,11.17
2018-06-12T08:47:12.617Z,9.33
2018-06-12T08:50:15.545Z,17.83
2018-06-12T08:53:18.442Z,13.23
2018-06-12T08:56:21.389Z,18.30
2018-06-12T08:59:24.678Z,14.87
2018-06-12T09:02:27.592Z,7.70
2018-06-12T09:05:30.521Z,8.67
2018-06-12T09:08:33.445Z,11.60
2018-06-12T09:11:36.349Z,11.03
2018-06-12T09:14:39.273Z,10.57
2018-06-12T09:17:42.181Z,11.83
2018-06-12T09:20:45.103Z,11.70
2018-06-12T09:23:48.040Z,12.47
2018-06-12T09:26:50.967Z,10.37
2018-06-12T09:29:53.873Z,8.47
2018-06-12T09:32:56.794Z,13.10
2018-06-12T09:36:06.150Z,11.13
2018-06-12T09:39:09.320Z,9.17
2018-06-12T09:42:12.248Z,15.93
2018-06-12T09:45:15.154Z,12.07
2018-06-12T09:48:18.061Z,12.60
2018-06-12T09:51:21.022Z,8.40
2018-06-12T09:54:23.975Z,17.33
2018-06-12T09:57:26.919Z,9.10
2018-06-12T10:00:35.461Z,9.13
2018-06-12T10:03:38.358Z,19.20
2018-06-12T10:06:41.300Z,23.03
2018-06-12T10:09:44.210Z,15.40
2018-06-12T10:12:47.118Z,15.33
2018-06-12T10:15:50.032Z,10.20
2018-06-12T10:18:53.026Z,11.50
2018-06-12T10:21:55.916Z,10.10
2018-06-12T10:24:58.878Z,9.93
2018-06-12T10:28:01.800Z,14.80
2018-06-12T10:31:04.745Z,16.47
2018-06-12T10:34:07.667Z,10.80
2018-06-12T10:37:10.577Z,18.20
2018-06-12T10:40:13.490Z,17.17
2018-06-12T10:43:16.409Z,17.60
2018-06-12T10:46:19.322Z,15.00
2018-06-12T10:49:22.277Z,16.63
2018-06-12T10:52:25.219Z,22.23
2018-06-12T10:55:28.161Z,33.63
2018-06-12T10:58:31.094Z,19.53
2018-06-12T11:01:34.028Z,18.07
2018-06-12T11:04:36.973Z,31.00
2018-06-12T11:07:39.877Z,18.60
2018-06-12T11:10:42.787Z,18.27
2018-06-12T11:13:45.701Z,22.27
2018-06-12T11:16:48.656Z,25.27
2018-06-12T11:19:51.566Z,23.80
2018-06-12T11:22:54.523Z,21.20
2018-06-12T11:25:57.436Z,18.90
2018-06-12T11:29:00.332Z,28.40
2018-06-12T11:32:03.725Z,20.43
2018-06-12T11:35:06.653Z,17.77
2018-06-12T11:38:09.568Z,16.30
2018-06-12T11:41:12.469Z,22.10
2018-06-12T11:44:15.360Z,14.07
2018-06-12T11:47:18.261Z,19.13
2018-06-12T11:50:21.157Z,10.70
2018-06-12T11:53:24.090Z,16.27
2018-06-12T11:56:27.018Z,15.30
2018-06-12T11:59:29.943Z,11.90
2018-06-12T12:02:32.858Z,13.87
2018-06-12T12:05:35.765Z,15.97
2018-06-12T12:08:38.703Z,13.07
2018-06-12T12:11:41.701Z,31.13
2018-06-12T12:14:44.635Z,9.27
2018-06-12T12:17:47.600Z,12.50
2018-06-12T12:20:50.538Z,17.37
2018-06-12T12:23:53.486Z,16.60
2018-06-12T12:26:56.511Z,11.20
2018-06-12T12:29:59.420Z,12.40
2018-06-12T12:33:02.363Z,12.80
2018-06-12T12:36:06.805Z,11.10
2018-06-12T12:39:09.740Z,7.47
2018-06-12T12:42:12.646Z,18.23
2018-06-12T12:45:15.568Z,13.77
2018-06-12T12:48:19.069Z,17.80
2018-06-12T12:51:22.266Z,12.93
2018-06-12T12:54:25.469Z,12.03
2018-06-12T12:57:28.400Z,19.33
2018-06-12T13:00:31.380Z,15.57
2018-06-12T13:03:34.537Z,8.13
2018-06-12T13:06:38.068Z,14.50
2018-06-12T13:09:40.965Z,8.90
2018-06-12T13:12:43.897Z,8.90
2018-06-12T13:15:46.822Z,11.67
2018-06-12T13:18:49.737Z,15.00
2018-06-12T13:21:52.669Z,12.83
2018-06-12T13:24:55.699Z,15.00
2018-06-12T13:27:58.821Z,8.17
2018-06-12T13:31:02.698Z,16.70
2018-06-12T13:34:06.571Z,7.60
2018-06-12T13:37:10.409Z,15.83
2018-06-12T13:40:13.774Z,8.60
2018-06-12T13:43:17.769Z,17.50
2018-06-12T13:46:21.046Z,16.50
2018-06-12T13:49:24.575Z,9.37
2018-06-12T13:52:28.731Z,12.33
2018-06-12T13:55:31.775Z,8.83
2018-06-12T13:58:34.899Z,16.53
2018-06-12T14:01:38.115Z,10.97
2018-06-12T14:04:42.167Z,16.27
2018-06-12T14:07:46.287Z,9.10
2018-06-12T14:10:50.830Z,11.50
2018-06-12T14:13:54.107Z,15.00
2018-06-12T14:16:57.681Z,23.73
2018-06-12T14:20:00.767Z,11.70
2018-06-12T14:23:04.254Z,15.07
2018-06-12T14:26:07.711Z,12.27
2018-06-12T14:29:10.738Z,7.10
2018-06-12T14:32:14.190Z,19.93
2018-06-12T14:35:17.460Z,9.57
2018-06-12T14:38:21.088Z,17.73
2018-06-12T14:41:24.290Z,10.93
2018-06-12T14:44:27.638Z,15.23
2018-06-12T14:47:31.467Z,14.13
2018-06-12T14:50:35.368Z,11.47
2018-06-12T14:53:39.020Z,16.10
2018-06-12T14:56:42.845Z,12.77
2018-06-12T14:59:46.164Z,22.00
2018-06-12T15:02:49.173Z,14.00
2018-06-12T15:05:53.902Z,19.77
2018-06-12T15:08:58.327Z,17.30
2018-06-12T15:12:01.986Z,24.20
2018-06-12T15:15:05.890Z,20.47
2018-06-12T15:18:09.001Z,18.90
2018-06-12T15:21:12.852Z,18.77
2018-06-12T15:24:16.516Z,33.13
2018-06-12T15:27:19.798Z,19.37
2018-06-12T15:30:22.858Z,24.33
2018-06-12T15:33:26.901Z,18.07
2018-06-12T15:36:30.330Z,22.07
2018-06-12T15:39:33.650Z,22.00
2018-06-12T15:42:37.405Z,23.70
2018-06-12T15:45:41.066Z,22.60
2018-06-12T15:48:44.452Z,20.10
2018-06-12T15:51:48.032Z,24.57
2018-06-12T15:54:51.453Z,22.80
2018-06-12T15:57:54.692Z,22.10
2018-06-12T16:00:59.141Z,16.60
2018-06-12T16:04:02.325Z,24.17
2018-06-12T16:07:05.616Z,22.60
2018-06-12T16:10:09.346Z,13.83
2018-06-12T16:13:13.284Z,16.10
2018-06-12T16:16:16.255Z,18.40
2018-06-12T16:19:19.477Z,13.73
2018-06-12T16:22:23.237Z,21.20
2018-06-12T16:25:26.757Z,14.23
2018-06-12T16:28:30.165Z,18.43
2018-06-12T16:31:34.703Z,21.00
2018-06-12T16:34:38.186Z,14.43
2018-06-12T16:37:41.698Z,13.57
2018-06-12T16:40:45.714Z,20.70
2018-06-12T16:43:48.997Z,15.67
2018-06-12T16:46:52.714Z,15.67
2018-06-12T16:49:56.230Z,13.23
2018-06-12T16:52:59.745Z,14.53
2018-06-12T16:56:02.981Z,17.53
2018-06-12T16:59:06.441Z,16.70
2018-06-12T17:02:09.930Z,18.13
2018-06-12T17:05:14.509Z,15.80
2018-06-12T17:08:17.873Z,21.47
2018-06-12T17:11:21.185Z,19.10
2018-06-12T17:14:24.581Z,13.27
2018-06-12T17:17:28.081Z,12.73
2018-06-12T17:20:31.418Z,15.13
2018-06-12T17:23:34.775Z,16.30
2018-06-12T17:26:38.288Z,17.10
2018-06-12T17:29:41.713Z,16.30
2018-06-12T17:32:45.238Z,15.90
2018-06-12T17:35:48.805Z,15.67
2018-06-12T17:38:52.115Z,13.20
2018-06-12T17:41:56.025Z,18.03
2018-06-12T17:44:59.568Z,15.40
2018-06-12T17:48:02.841Z,18.50
2018-06-12T17:51:06.762Z,20.27
2018-06-12T17:54:10.224Z,19.73
2018-06-12T17:57:14.711Z,20.00
2018-06-12T18:00:18.581Z,18.57
2018-06-12T18:03:22.101Z,21.00
2018-06-12T18:06:27.183Z,20.03
2018-06-12T18:09:30.528Z,17.87
2018-06-12T18:12:33.909Z,15.50
2018-06-12T18:15:37.858Z,19.10
2018-06-12T18:18:41.578Z,22.90
2018-06-12T18:21:44.877Z,18.13
2018-06-12T18:24:48.244Z,21.20
2018-06-12T18:27:51.074Z,16.80
2018-06-12T18:30:54.013Z,14.50
2018-06-12T18:33:56.995Z,19.23
2018-06-12T18:36:59.926Z,12.70
2018-06-12T18:40:02.874Z,17.53
2018-06-12T18:43:05.854Z,91.07
2018-06-12T18:46:08.797Z,17.53
2018-06-12T18:49:11.734Z,18.73
2018-06-12T18:52:14.690Z,23.67
2018-06-12T18:55:17.635Z,14.50
2018-06-12T18:58:20.565Z,15.80
2018-06-12T19:01:23.540Z,14.40
2018-06-12T19:04:26.508Z,13.73
2018-06-12T19:07:29.470Z,13.13
2018-06-12T19:10:32.398Z,11.57
2018-06-12T19:13:35.379Z,14.13
2018-06-12T19:16:38.303Z,23.73
2018-06-12T19:19:41.263Z,15.50
2018-06-12T19:22:44.216Z,15.70
2018-06-12T19:25:47.169Z,16.80
2018-06-12T19:28:50.128Z,13.37
2018-06-12T19:31:53.109Z,13.30
2018-06-12T19:34:56.088Z,24.13
2018-06-12T19:37:59.022Z,12.53
2018-06-12T19:41:01.980Z,17.00
2018-06-12T19:44:04.939Z,20.63
2018-06-12T19:47:07.861Z,21.23
2018-06-12T19:50:10.789Z,15.33
2018-06-12T19:53:13.678Z,15.73
2018-06-12T19:56:16.608Z,16.43
2018-06-12T19:59:19.502Z,20.17
2018-06-12T20:02:22.409Z,16.40
2018-06-12T20:05:32.123Z,23.13
2018-06-12T20:08:35.061Z,17.30
2018-06-12T20:11:38.001Z,15.50
2018-06-12T20:14:40.935Z,9.87
2018-06-12T20:17:43.827Z,11.70
2018-06-12T20:20:46.741Z,23.63
2018-06-12T20:23:49.637Z,16.03
2018-06-12T20:26:52.549Z,12.10
2018-06-12T20:29:55.450Z,10.70
2018-06-12T20:32:58.441Z,11.70
2018-06-12T20:36:02.829Z,12.17
2018-06-12T20:39:08.158Z,10.70
2018-06-12T20:42:11.109Z,13.17
2018-06-12T20:45:14.190Z,14.47
2018-06-12T20:48:17.764Z,16.13
2018-06-12T20:51:21.176Z,13.50
2018-06-12T20:54:24.216Z,13.07
2018-06-12T20:57:27.594Z,8.90
2018-06-12T21:00:30.609Z,9.73
2018-06-12T21:03:33.694Z,7.50
2018-06-12T21:06:36.761Z,13.20
2018-06-12T21:09:39.871Z,9.33
2018-06-12T21:12:43.023Z,14.03
2018-06-12T21:15:46.974Z,10.17
2018-06-12T21:18:50.553Z,8.10
2018-06-12T21:21:53.657Z,8.10
2018-06-12T21:24:56.807Z,16.90
2018-06-12T21:27:59.990Z,11.50
2018-06-12T21:31:03.005Z,7.70
2018-06-12T21:34:06.028Z,8.57
2018-06-12T21:37:09.832Z,9.50
2018-06-12T21:40:12.916Z,13.37
2018-06-12T21:43:15.981Z,12.07
2018-06-12T21:46:18.928Z,7.00
2018-06-12T21:49:22.254Z,9.87
2018-06-12T21:52:25.166Z,7.40
2018-06-12T21:55:28.319Z,12.80
2018-06-12T21:58:31.372Z,9.67
2018-06-12T22:01:34.282Z,10.67
2018-06-12T22:04:37.182Z,8.50
2018-06-12T22:07:40.330Z,6.83
2018-06-12T22:10:43.263Z,13.23
2018-06-12T22:13:46.804Z,8.13
2018-06-12T22:16:49.748Z,5.83
2018-06-12T22:19:52.712Z,6.67
2018-06-12T22:22:55.630Z,6.83
2018-06-12T22:25:58.785Z,4.30
2018-06-12T22:29:01.849Z,7.00
2018-06-12T22:32:05.338Z,8.73
2018-06-12T22:35:08.334Z,4.97
2018-06-12T22:38:11.248Z,6.40
2018-06-12T22:41:14.258Z,6.17
2018-06-12T22:44:17.384Z,7.43
2018-06-12T22:47:21.338Z,11.03
2018-06-12T22:50:24.368Z,10.07
2018-06-12T22:53:27.444Z,7.17
2018-06-12T22:56:30.384Z,8.50
2018-06-12T22:59:33.366Z,8.03
2018-06-12T23:02:36.548Z,8.80
2018-06-12T23:05:39.467Z,8.77
2018-06-12T23:08:42.353Z,12.17
2018-06-12T23:11:45.299Z,11.13
2018-06-12T23:14:48.219Z,6.00
2018-06-12T23:17:51.159Z,6.33
2018-06-12T23:22:04.303Z,9.73
2018-06-12T23:25:07.232Z,9.83
2018-06-12T23:28:10.149Z,17.63
2018-06-12T23:31:13.050Z,8.87
2018-06-12T23:34:15.937Z,7.03
2018-06-12T23:37:18.877Z,10.70
2018-06-12T23:40:21.772Z,10.20
2018-06-12T23:43:24.708Z,7.73
2018-06-12T23:46:27.623Z,7.87
2018-06-12T23:49:30.568Z,7.63
2018-06-12T23:52:33.449Z,4.77
2018-06-12T23:55:36.421Z,8.20
2018-06-12T23:58:39.359Z,12.00
